Racecast

Azale Howard

360 Elite Track Club (VA) · 12 · Compare head to head

Athlete rating 95.8
Best race 101.7 TF
Races 44
Seasons 2 2025 — 2026
Speed rating — all races

Track & Field

TF speed rating

2026 TF 94.5

360 Elite Track Club (VA) · Grade 12

Date Meet Event Result Place Rating Difficulty PR/SR Flags
2026-06-13 AAU Virginia District Qualifier - South lj 10' 1.75" -0.033
2026-06-13 AAU Virginia District Qualifier - South 400m 1:13.24 14th · 1st on team -0.033
2026-06-13 AAU Virginia District Qualifier - South 200m 30.26 19th · 1st on team -0.033 ★PR SR
2026-05-30 Va Beach Flames Invite 100m 14.71 39th · 1st on team -0.023 ★PR SR
2026-05-30 Va Beach Flames Invite 400m 1:18.5 32nd · 1st on team -0.023
2026-05-24 HR Hurricanes CAT 5 Invite lj 11' 3" -0.035
2026-05-24 HR Hurricanes CAT 5 Invite 800m 3:06.54 7th · 1st on team 97.9 -0.035 SR RSR
2026-05-24 HR Hurricanes CAT 5 Invite 200mh 36.73 10th · 1st on team -0.035 ★PR SR
2026-05-16 2026 Technique Relays lj 8' 7" -0.035
2026-05-16 2026 Technique Relays 400m 1:13.43 21st · 1st on team -0.035
2026-02-28 BWSP Queens and Kings Championships 55m 8.5 24th · 1st on team -0.024 ★PR SR
2026-02-28 BWSP Queens and Kings Championships 400m 1:12.69 11th · 1st on team -0.024 ★PR SR
2026-02-28 BWSP Queens and Kings Championships 55mh 12.31 7th · 2nd on team -0.024
2026-02-28 BWSP Queens and Kings Championships 200m 32.55 26th · 2nd on team -0.024
2026-02-22 3rd Annual HRH Winter Storm Classic 55mh 11.53 8th · 1st on team -0.024 ★PR SR
2026-02-22 3rd Annual HRH Winter Storm Classic 800m 3:09.93 2nd · 1st on team 97.3 -0.024 SR RSR
2026-02-22 3rd Annual HRH Winter Storm Classic 200m 30.84 24th · 1st on team -0.024 PR SR
2026-01-11 Lighting Track Classic 60m 9.5 44th · 1st on team -0.036 ★PR SR
2026-01-11 Lighting Track Classic 800m 3:27.98 7th · 1st on team 88.2 -0.036 SR RSR
2026-01-11 Lighting Track Classic 400m 1:22.8 43rd · 3rd on team -0.036 SR

2025 TF 94.7

360 Elite Track Club (VA) · Grade 11

Date Meet Event Result Place Rating Difficulty PR/SR Flags
2025-06-25 AAU Track & Field Region 5 Qualifier 100m 15.25 23rd · 2nd on team -0.034
2025-06-14 AAU Virginia District Qualifier (Southern) 200m 33.29 20th · 2nd on team -0.041
2025-06-14 AAU Virginia District Qualifier (Southern) 400m 1:21.02 18th · 1st on team -0.041
2025-06-14 AAU Virginia District Qualifier (Southern) 100m 16.02 14th · 2nd on team -0.041
2025-06-07 Darius Dixon Invite lj FOUL -0.032
2025-06-07 Darius Dixon Invite 400m 1:20.4 21st · 3rd on team -0.032
2025-06-07 Darius Dixon Invite 800m 3:17.05 11th · 1st on team 93.2 -0.032
2025-05-25 HR Hurricanes CAT 5 Invite 400m 1:22.8 15th · 1st on team -0.035
2025-05-25 HR Hurricanes CAT 5 Invite 800m 3:25.4 5th · 1st on team 88.9 -0.035
2025-05-25 HR Hurricanes CAT 5 Invite 100m 15.35 21st · 1st on team -0.035
2025-04-27 TRACK 757 Classic 100m 15.11 21st · 4th on team -0.029 PR SR
2025-04-27 TRACK 757 Classic 800m 3:01.35 7th · 1st on team 101.7 -0.029 ★PR ★R SR RSR
2025-02-22 BWSP Queens and Kings Championships 200m 33.89 21st · 2nd on team -0.014
2025-02-22 BWSP Queens and Kings Championships 400m 1:19.85 19th · 1st on team -0.014
2025-02-22 BWSP Queens and Kings Championships 55m 8.6 22nd · 1st on team -0.014 PR SR
2025-02-16 HRH Winter Storm Classic 55m 8.71 14th · 1st on team -0.014 PR SR
2025-02-16 HRH Winter Storm Classic 200m 33.49 14th · 1st on team -0.014
2025-02-16 HRH Winter Storm Classic 400m 1:17.82 17th · 1st on team -0.014 PR SR
2025-02-02 Track757 Invite 800m 3:12.82 16th · 1st on team 95.2 -0.036 PR R SR RSR
2025-02-02 Track757 Invite 200m 33.02 22nd · 1st on team -0.036 PR SR
2025-02-02 Track757 Invite 60m 9.77 24th · 1st on team -0.036 PR SR
2025-01-05 757 Showdown 400m 1:26.74 24th · 1st on team -0.036 PR SR
2025-01-05 757 Showdown 60m 9.84 27th · 2nd on team -0.036 PR SR
2025-01-05 757 Showdown 200m 34.18 36th · 2nd on team -0.036 PR SR